sensor_id;sensor_type;location;lat;lon;timestamp;temperature;humidity
13796;SHT30;40911;51.552;9.874;2023-11-21T00:00:30;4.75;97.82
13796;SHT30;40911;51.552;9.874;2023-11-21T00:02:52;4.76;97.22
13796;SHT30;40911;51.552;9.874;2023-11-21T00:05:15;4.57;97.32
13796;SHT30;40911;51.552;9.874;2023-11-21T00:07:38;4.34;97.43
13796;SHT30;40911;51.552;9.874;2023-11-21T00:09:59;4.34;97.36
13796;SHT30;40911;51.552;9.874;2023-11-21T00:12:21;4.55;97.12
13796;SHT30;40911;51.552;9.874;2023-11-21T00:14:43;4.54;96.69
13796;SHT30;40911;51.552;9.874;2023-11-21T00:17:04;4.37;96.80
13796;SHT30;40911;51.552;9.874;2023-11-21T00:19:26;4.30;96.87
13796;SHT30;40911;51.552;9.874;2023-11-21T00:21:50;4.32;96.59
13796;SHT30;40911;51.552;9.874;2023-11-21T00:24:12;4.30;96.56
13796;SHT30;40911;51.552;9.874;2023-11-21T00:26:34;4.45;96.51
13796;SHT30;40911;51.552;9.874;2023-11-21T00:28:57;4.35;96.22
13796;SHT30;40911;51.552;9.874;2023-11-21T00:31:19;4.39;96.25
13796;SHT30;40911;51.552;9.874;2023-11-21T00:33:41;4.45;95.90
13796;SHT30;40911;51.552;9.874;2023-11-21T00:36:04;4.45;95.75
13796;SHT30;40911;51.552;9.874;2023-11-21T00:38:31;4.41;95.89
13796;SHT30;40911;51.552;9.874;2023-11-21T00:40:52;4.44;95.70
13796;SHT30;40911;51.552;9.874;2023-11-21T00:43:16;4.07;96.18
13796;SHT30;40911;51.552;9.874;2023-11-21T00:45:38;4.10;96.24
13796;SHT30;40911;51.552;9.874;2023-11-21T00:48:00;3.99;96.23
13796;SHT30;40911;51.552;9.874;2023-11-21T00:50:22;3.93;96.42
13796;SHT30;40911;51.552;9.874;2023-11-21T00:52:44;3.96;96.81
13796;SHT30;40911;51.552;9.874;2023-11-21T00:55:08;3.82;96.38
13796;SHT30;40911;51.552;9.874;2023-11-21T00:57:30;3.97;96.75
13796;SHT30;40911;51.552;9.874;2023-11-21T00:59:52;4.00;96.77
13796;SHT30;40911;51.552;9.874;2023-11-21T01:02:13;3.96;96.52
13796;SHT30;40911;51.552;9.874;2023-11-21T01:04:35;3.69;96.80
13796;SHT30;40911;51.552;9.874;2023-11-21T01:06:58;3.63;96.95
13796;SHT30;40911;51.552;9.874;2023-11-21T01:09:19;3.78;96.52
13796;SHT30;40911;51.552;9.874;2023-11-21T01:11:42;3.78;96.40
13796;SHT30;40911;51.552;9.874;2023-11-21T01:14:04;3.75;96.22
13796;SHT30;40911;51.552;9.874;2023-11-21T01:16:26;3.82;96.49
13796;SHT30;40911;51.552;9.874;2023-11-21T01:18:48;3.82;96.00
13796;SHT30;40911;51.552;9.874;2023-11-21T01:21:10;3.71;96.34
13796;SHT30;40911;51.552;9.874;2023-11-21T01:23:32;3.66;96.49
13796;SHT30;40911;51.552;9.874;2023-11-21T01:25:55;3.68;96.74
13796;SHT30;40911;51.552;9.874;2023-11-21T01:28:18;3.69;96.71
13796;SHT30;40911;51.552;9.874;2023-11-21T01:30:40;3.73;96.67
13796;SHT30;40911;51.552;9.874;2023-11-21T01:33:02;3.75;96.82
13796;SHT30;40911;51.552;9.874;2023-11-21T01:35:24;3.82;96.77
13796;SHT30;40911;51.552;9.874;2023-11-21T01:37:45;3.80;96.80
13796;SHT30;40911;51.552;9.874;2023-11-21T01:40:09;3.87;96.79
13796;SHT30;40911;51.552;9.874;2023-11-21T01:42:33;3.94;96.72
13796;SHT30;40911;51.552;9.874;2023-11-21T01:44:56;4.03;96.82
13796;SHT30;40911;51.552;9.874;2023-11-21T01:47:18;4.07;97.02
13796;SHT30;40911;51.552;9.874;2023-11-21T01:49:43;4.04;96.90
13796;SHT30;40911;51.552;9.874;2023-11-21T01:52:06;4.13;96.87
13796;SHT30;40911;51.552;9.874;2023-11-21T01:54:28;4.00;97.44
13796;SHT30;40911;51.552;9.874;2023-11-21T01:56:51;4.01;97.54
13796;SHT30;40911;51.552;9.874;2023-11-21T01:59:14;4.13;97.81
13796;SHT30;40911;51.552;9.874;2023-11-21T02:01:40;4.24;97.34
13796;SHT30;40911;51.552;9.874;2023-11-21T02:04:03;4.25;97.29
13796;SHT30;40911;51.552;9.874;2023-11-21T02:06:24;4.28;97.33
13796;SHT30;40911;51.552;9.874;2023-11-21T02:08:46;4.28;97.41
13796;SHT30;40911;51.552;9.874;2023-11-21T02:11:08;4.37;97.45
13796;SHT30;40911;51.552;9.874;2023-11-21T02:13:33;4.44;97.40
13796;SHT30;40911;51.552;9.874;2023-11-21T02:15:55;4.49;97.27
13796;SHT30;40911;51.552;9.874;2023-11-21T02:18:18;4.51;97.58
13796;SHT30;40911;51.552;9.874;2023-11-21T02:20:39;4.48;98.14
13796;SHT30;40911;51.552;9.874;2023-11-21T02:23:04;4.48;98.18
13796;SHT30;40911;51.552;9.874;2023-11-21T02:25:27;4.51;97.79
13796;SHT30;40911;51.552;9.874;2023-11-21T02:27:49;4.51;98.18
13796;SHT30;40911;51.552;9.874;2023-11-21T02:30:12;4.52;98.07
13796;SHT30;40911;51.552;9.874;2023-11-21T02:32:34;4.59;97.97
13796;SHT30;40911;51.552;9.874;2023-11-21T02:34:55;4.58;97.93
13796;SHT30;40911;51.552;9.874;2023-11-21T02:37:21;4.55;98.11
13796;SHT30;40911;51.552;9.874;2023-11-21T02:39:44;4.51;98.10
13796;SHT30;40911;51.552;9.874;2023-11-21T02:42:06;4.57;97.89
13796;SHT30;40911;51.552;9.874;2023-11-21T02:44:28;4.45;98.13
13796;SHT30;40911;51.552;9.874;2023-11-21T02:46:50;4.34;98.52
13796;SHT30;40911;51.552;9.874;2023-11-21T02:49:11;4.30;98.78
13796;SHT30;40911;51.552;9.874;2023-11-21T02:51:33;4.37;98.47
13796;SHT30;40911;51.552;9.874;2023-11-21T02:53:55;4.38;98.14
13796;SHT30;40911;51.552;9.874;2023-11-21T02:56:20;4.39;98.02
13796;SHT30;40911;51.552;9.874;2023-11-21T02:58:44;4.45;97.86
13796;SHT30;40911;51.552;9.874;2023-11-21T03:01:05;4.27;97.95
13796;SHT30;40911;51.552;9.874;2023-11-21T03:03:27;4.16;98.44
13796;SHT30;40911;51.552;9.874;2023-11-21T03:05:49;4.20;98.36
13796;SHT30;40911;51.552;9.874;2023-11-21T03:08:11;4.25;97.80
13796;SHT30;40911;51.552;9.874;2023-11-21T03:10:33;4.14;98.02
13796;SHT30;40911;51.552;9.874;2023-11-21T03:12:56;4.13;98.31
13796;SHT30;40911;51.552;9.874;2023-11-21T03:15:18;4.22;97.92
13796;SHT30;40911;51.552;9.874;2023-11-21T03:17:39;4.21;97.75
13796;SHT30;40911;51.552;9.874;2023-11-21T03:20:02;4.27;97.40
13796;SHT30;40911;51.552;9.874;2023-11-21T03:22:24;4.17;97.38
13796;SHT30;40911;51.552;9.874;2023-11-21T03:24:46;4.04;97.95
13796;SHT30;40911;51.552;9.874;2023-11-21T03:27:08;4.09;97.84
13796;SHT30;40911;51.552;9.874;2023-11-21T03:29:31;3.93;98.24
13796;SHT30;40911;51.552;9.874;2023-11-21T03:31:53;4.00;98.62
13796;SHT30;40911;51.552;9.874;2023-11-21T03:34:16;4.07;98.39
13796;SHT30;40911;51.552;9.874;2023-11-21T03:36:37;4.09;98.59
13796;SHT30;40911;51.552;9.874;2023-11-21T03:38:59;4.24;98.16
13796;SHT30;40911;51.552;9.874;2023-11-21T03:41:21;4.18;98.13
13796;SHT30;40911;51.552;9.874;2023-11-21T03:43:42;4.32;97.90
13796;SHT30;40911;51.552;9.874;2023-11-21T03:46:06;4.34;97.66
13796;SHT30;40911;51.552;9.874;2023-11-21T03:48:27;4.24;97.97
13796;SHT30;40911;51.552;9.874;2023-11-21T03:50:49;4.30;98.02
13796;SHT30;40911;51.552;9.874;2023-11-21T03:53:11;4.22;98.18
13796;SHT30;40911;51.552;9.874;2023-11-21T03:55:32;4.32;98.01
13796;SHT30;40911;51.552;9.874;2023-11-21T03:57:54;4.37;98.14
13796;SHT30;40911;51.552;9.874;2023-11-21T04:00:17;4.35;97.87
13796;SHT30;40911;51.552;9.874;2023-11-21T04:02:41;4.37;97.76
13796;SHT30;40911;51.552;9.874;2023-11-21T04:05:04;4.31;97.94
13796;SHT30;40911;51.552;9.874;2023-11-21T04:07:27;4.31;97.93
13796;SHT30;40911;51.552;9.874;2023-11-21T04:09:48;4.34;98.17
13796;SHT30;40911;51.552;9.874;2023-11-21T04:12:10;4.35;98.03
13796;SHT30;40911;51.552;9.874;2023-11-21T04:14:32;4.35;98.23
13796;SHT30;40911;51.552;9.874;2023-11-21T04:16:53;4.45;97.93
13796;SHT30;40911;51.552;9.874;2023-11-21T04:19:17;4.42;97.98
13796;SHT30;40911;51.552;9.874;2023-11-21T04:21:38;4.39;98.08
13796;SHT30;40911;51.552;9.874;2023-11-21T04:24:00;4.47;97.90
13796;SHT30;40911;51.552;9.874;2023-11-21T04:26:22;4.47;97.93
13796;SHT30;40911;51.552;9.874;2023-11-21T04:28:43;4.47;97.74
13796;SHT30;40911;51.552;9.874;2023-11-21T04:31:05;4.44;97.79
13796;SHT30;40911;51.552;9.874;2023-11-21T04:33:27;4.45;97.69
13796;SHT30;40911;51.552;9.874;2023-11-21T04:35:50;4.47;97.59
13796;SHT30;40911;51.552;9.874;2023-11-21T04:38:12;4.47;97.83
13796;SHT30;40911;51.552;9.874;2023-11-21T04:40:34;4.45;97.70
13796;SHT30;40911;51.552;9.874;2023-11-21T04:42:55;4.41;97.92
13796;SHT30;40911;51.552;9.874;2023-11-21T04:45:19;4.49;97.66
13796;SHT30;40911;51.552;9.874;2023-11-21T04:47:41;4.48;97.59
13796;SHT30;40911;51.552;9.874;2023-11-21T04:50:04;4.47;97.86
13796;SHT30;40911;51.552;9.874;2023-11-21T04:52:28;4.49;97.67
13796;SHT30;40911;51.552;9.874;2023-11-21T04:54:49;4.30;98.12
13796;SHT30;40911;51.552;9.874;2023-11-21T04:57:11;4.35;98.50
13796;SHT30;40911;51.552;9.874;2023-11-21T04:59:33;4.42;98.08
13796;SHT30;40911;51.552;9.874;2023-11-21T05:01:55;4.34;98.40
13796;SHT30;40911;51.552;9.874;2023-11-21T05:04:16;4.45;98.30
13796;SHT30;40911;51.552;9.874;2023-11-21T05:06:39;4.49;97.90
13796;SHT30;40911;51.552;9.874;2023-11-21T05:09:02;4.55;97.86
13796;SHT30;40911;51.552;9.874;2023-11-21T05:11:24;4.58;97.86
13796;SHT30;40911;51.552;9.874;2023-11-21T05:13:46;4.57;97.97
13796;SHT30;40911;51.552;9.874;2023-11-21T05:16:09;4.59;97.89
13796;SHT30;40911;51.552;9.874;2023-11-21T05:18:31;4.59;98.15
13796;SHT30;40911;51.552;9.874;2023-11-21T05:20:53;4.64;98.16
13796;SHT30;40911;51.552;9.874;2023-11-21T05:23:16;4.58;98.17
13796;SHT30;40911;51.552;9.874;2023-11-21T05:25:39;4.61;98.10
13796;SHT30;40911;51.552;9.874;2023-11-21T05:28:01;4.65;98.13
13796;SHT30;40911;51.552;9.874;2023-11-21T05:30:24;4.62;98.39
13796;SHT30;40911;51.552;9.874;2023-11-21T05:32:46;4.58;98.29
13796;SHT30;40911;51.552;9.874;2023-11-21T05:35:08;4.59;98.23
13796;SHT30;40911;51.552;9.874;2023-11-21T05:37:34;4.61;98.50
13796;SHT30;40911;51.552;9.874;2023-11-21T05:39:56;4.61;98.39
13796;SHT30;40911;51.552;9.874;2023-11-21T05:42:20;4.65;98.12
13796;SHT30;40911;51.552;9.874;2023-11-21T05:44:42;4.61;98.39
13796;SHT30;40911;51.552;9.874;2023-11-21T05:47:04;4.66;98.08
13796;SHT30;40911;51.552;9.874;2023-11-21T05:49:27;4.71;98.40
13796;SHT30;40911;51.552;9.874;2023-11-21T05:51:50;4.76;98.03
13796;SHT30;40911;51.552;9.874;2023-11-21T05:54:14;4.76;98.01
13796;SHT30;40911;51.552;9.874;2023-11-21T05:56:35;4.78;97.86
13796;SHT30;40911;51.552;9.874;2023-11-21T05:58:59;4.72;98.15
13796;SHT30;40911;51.552;9.874;2023-11-21T06:01:21;4.72;98.51
13796;SHT30;40911;51.552;9.874;2023-11-21T06:03:42;4.76;98.39
13796;SHT30;40911;51.552;9.874;2023-11-21T06:06:05;4.80;98.11
13796;SHT30;40911;51.552;9.874;2023-11-21T06:08:27;4.79;98.37
13796;SHT30;40911;51.552;9.874;2023-11-21T06:10:48;4.85;98.35
13796;SHT30;40911;51.552;9.874;2023-11-21T06:13:10;4.92;98.26
13796;SHT30;40911;51.552;9.874;2023-11-21T06:15:33;4.86;98.39
13796;SHT30;40911;51.552;9.874;2023-11-21T06:17:55;4.89;98.59
13796;SHT30;40911;51.552;9.874;2023-11-21T06:20:16;4.89;98.39
13796;SHT30;40911;51.552;9.874;2023-11-21T06:22:40;4.87;98.58
13796;SHT30;40911;51.552;9.874;2023-11-21T06:25:03;4.83;98.54
13796;SHT30;40911;51.552;9.874;2023-11-21T06:27:25;4.89;98.48
13796;SHT30;40911;51.552;9.874;2023-11-21T06:29:47;4.83;98.67
13796;SHT30;40911;51.552;9.874;2023-11-21T06:32:10;4.89;98.55
13796;SHT30;40911;51.552;9.874;2023-11-21T06:34:32;4.86;98.64
13796;SHT30;40911;51.552;9.874;2023-11-21T06:36:53;4.90;98.73
13796;SHT30;40911;51.552;9.874;2023-11-21T06:39:15;4.87;98.57
13796;SHT30;40911;51.552;9.874;2023-11-21T06:41:37;4.83;98.58
13796;SHT30;40911;51.552;9.874;2023-11-21T06:43:59;4.90;98.41
13796;SHT30;40911;51.552;9.874;2023-11-21T06:46:21;4.92;98.52
13796;SHT30;40911;51.552;9.874;2023-11-21T06:48:44;4.95;98.68
13796;SHT30;40911;51.552;9.874;2023-11-21T06:51:06;4.97;98.80
13796;SHT30;40911;51.552;9.874;2023-11-21T06:53:28;5.01;98.57
13796;SHT30;40911;51.552;9.874;2023-11-21T06:55:50;5.07;98.33
13796;SHT30;40911;51.552;9.874;2023-11-21T06:58:11;5.07;98.33
13796;SHT30;40911;51.552;9.874;2023-11-21T07:00:34;5.10;98.56
13796;SHT30;40911;51.552;9.874;2023-11-21T07:02:56;5.11;98.71
13796;SHT30;40911;51.552;9.874;2023-11-21T07:05:20;5.14;98.71
13796;SHT30;40911;51.552;9.874;2023-11-21T07:07:42;5.20;98.41
13796;SHT30;40911;51.552;9.874;2023-11-21T07:10:04;5.20;98.25
13796;SHT30;40911;51.552;9.874;2023-11-21T07:12:26;5.28;98.57
13796;SHT30;40911;51.552;9.874;2023-11-21T07:14:48;5.27;98.32
13796;SHT30;40911;51.552;9.874;2023-11-21T07:17:10;5.34;98.57
13796;SHT30;40911;51.552;9.874;2023-11-21T07:19:32;5.35;98.84
13796;SHT30;40911;51.552;9.874;2023-11-21T07:21:56;5.32;98.89
13796;SHT30;40911;51.552;9.874;2023-11-21T07:24:18;5.34;98.93
13796;SHT30;40911;51.552;9.874;2023-11-21T07:26:41;5.37;98.84
13796;SHT30;40911;51.552;9.874;2023-11-21T07:29:03;5.28;98.90
13796;SHT30;40911;51.552;9.874;2023-11-21T07:31:27;5.25;99.08
13796;SHT30;40911;51.552;9.874;2023-11-21T07:33:50;5.31;99.16
13796;SHT30;40911;51.552;9.874;2023-11-21T07:36:12;5.38;99.02
13796;SHT30;40911;51.552;9.874;2023-11-21T07:38:35;5.41;98.90
13796;SHT30;40911;51.552;9.874;2023-11-21T07:40:57;5.41;98.83
13796;SHT30;40911;51.552;9.874;2023-11-21T07:43:21;5.42;98.74
13796;SHT30;40911;51.552;9.874;2023-11-21T07:45:43;5.46;98.79
13796;SHT30;40911;51.552;9.874;2023-11-21T07:48:05;5.51;98.87
13796;SHT30;40911;51.552;9.874;2023-11-21T07:50:27;5.54;98.71
13796;SHT30;40911;51.552;9.874;2023-11-21T07:52:48;5.55;98.76
13796;SHT30;40911;51.552;9.874;2023-11-21T07:55:12;5.56;98.62
13796;SHT30;40911;51.552;9.874;2023-11-21T07:57:34;5.56;98.65
13796;SHT30;40911;51.552;9.874;2023-11-21T07:59:56;5.59;98.55
13796;SHT30;40911;51.552;9.874;2023-11-21T08:02:17;5.66;98.72
13796;SHT30;40911;51.552;9.874;2023-11-21T08:04:39;5.64;98.65
13796;SHT30;40911;51.552;9.874;2023-11-21T08:07:01;5.68;98.83
13796;SHT30;40911;51.552;9.874;2023-11-21T08:09:24;5.68;98.89
13796;SHT30;40911;51.552;9.874;2023-11-21T08:11:47;5.73;98.96
13796;SHT30;40911;51.552;9.874;2023-11-21T08:14:08;5.73;99.12
13796;SHT30;40911;51.552;9.874;2023-11-21T08:16:30;5.76;99.17
13796;SHT30;40911;51.552;9.874;2023-11-21T08:18:51;5.72;99.16
13796;SHT30;40911;51.552;9.874;2023-11-21T08:21:14;5.78;99.19
13796;SHT30;40911;51.552;9.874;2023-11-21T08:23:36;5.71;98.92
13796;SHT30;40911;51.552;9.874;2023-11-21T08:25:58;5.78;99.24
13796;SHT30;40911;51.552;9.874;2023-11-21T08:28:21;5.76;99.18
13796;SHT30;40911;51.552;9.874;2023-11-21T08:30:43;5.78;99.23
13796;SHT30;40911;51.552;9.874;2023-11-21T08:33:05;5.81;99.18
13796;SHT30;40911;51.552;9.874;2023-11-21T08:35:27;5.86;99.15
13796;SHT30;40911;51.552;9.874;2023-11-21T08:37:51;5.86;99.15
13796;SHT30;40911;51.552;9.874;2023-11-21T08:40:13;5.86;99.25
13796;SHT30;40911;51.552;9.874;2023-11-21T08:42:36;5.96;99.44
13796;SHT30;40911;51.552;9.874;2023-11-21T08:44:59;5.93;99.34
13796;SHT30;40911;51.552;9.874;2023-11-21T08:47:21;6.00;99.27
13796;SHT30;40911;51.552;9.874;2023-11-21T08:49:44;5.99;99.25
13796;SHT30;40911;51.552;9.874;2023-11-21T08:52:06;6.04;99.48
13796;SHT30;40911;51.552;9.874;2023-11-21T08:54:28;6.06;99.47
13796;SHT30;40911;51.552;9.874;2023-11-21T08:56:50;6.06;99.49
13796;SHT30;40911;51.552;9.874;2023-11-21T08:59:11;6.10;99.50
13796;SHT30;40911;51.552;9.874;2023-11-21T09:01:36;6.09;99.38
13796;SHT30;40911;51.552;9.874;2023-11-21T09:03:58;6.10;99.42
13796;SHT30;40911;51.552;9.874;2023-11-21T09:06:19;6.13;99.39
13796;SHT30;40911;51.552;9.874;2023-11-21T09:08:41;6.21;99.34
13796;SHT30;40911;51.552;9.874;2023-11-21T09:11:04;6.16;99.41
13796;SHT30;40911;51.552;9.874;2023-11-21T09:13:26;6.16;99.44
13796;SHT30;40911;51.552;9.874;2023-11-21T09:15:47;6.20;99.45
13796;SHT30;40911;51.552;9.874;2023-11-21T09:18:12;6.24;99.51
13796;SHT30;40911;51.552;9.874;2023-11-21T09:20:33;6.24;99.55
13796;SHT30;40911;51.552;9.874;2023-11-21T09:22:55;6.24;99.47
13796;SHT30;40911;51.552;9.874;2023-11-21T09:25:17;6.34;99.66
13796;SHT30;40911;51.552;9.874;2023-11-21T09:27:38;6.35;99.67
13796;SHT30;40911;51.552;9.874;2023-11-21T09:30:00;6.44;99.61
13796;SHT30;40911;51.552;9.874;2023-11-21T09:32:22;6.38;99.66
13796;SHT30;40911;51.552;9.874;2023-11-21T09:34:45;6.45;99.69
13796;SHT30;40911;51.552;9.874;2023-11-21T09:37:07;6.41;99.72
13796;SHT30;40911;51.552;9.874;2023-11-21T09:39:28;6.49;99.73
13796;SHT30;40911;51.552;9.874;2023-11-21T09:41:52;6.48;99.64
13796;SHT30;40911;51.552;9.874;2023-11-21T09:44:18;6.52;99.70
13796;SHT30;40911;51.552;9.874;2023-11-21T09:46:42;6.58;99.87
13796;SHT30;40911;51.552;9.874;2023-11-21T09:49:04;6.55;99.82
13796;SHT30;40911;51.552;9.874;2023-11-21T09:51:31;6.53;99.85
13796;SHT30;40911;51.552;9.874;2023-11-21T09:53:59;6.59;99.89
13796;SHT30;40911;51.552;9.874;2023-11-21T09:56:21;6.65;99.95
13796;SHT30;40911;51.552;9.874;2023-11-21T09:58:44;6.62;99.90
13796;SHT30;40911;51.552;9.874;2023-11-21T10:01:06;6.65;99.88
13796;SHT30;40911;51.552;9.874;2023-11-21T10:03:29;6.68;99.85
13796;SHT30;40911;51.552;9.874;2023-11-21T10:05:53;6.72;99.77
13796;SHT30;40911;51.552;9.874;2023-11-21T10:08:22;6.73;99.87
13796;SHT30;40911;51.552;9.874;2023-11-21T10:10:52;6.79;99.86
13796;SHT30;40911;51.552;9.874;2023-11-21T10:13:14;6.86;99.81
13796;SHT30;40911;51.552;9.874;2023-11-21T10:15:38;6.86;99.80
13796;SHT30;40911;51.552;9.874;2023-11-21T10:18:00;6.89;99.80
13796;SHT30;40911;51.552;9.874;2023-11-21T10:20:23;6.86;99.71
13796;SHT30;40911;51.552;9.874;2023-11-21T10:22:46;6.88;99.71
13796;SHT30;40911;51.552;9.874;2023-11-21T10:25:09;6.88;99.81
13796;SHT30;40911;51.552;9.874;2023-11-21T10:27:31;6.96;99.84
13796;SHT30;40911;51.552;9.874;2023-11-21T10:29:53;7.00;99.80
13796;SHT30;40911;51.552;9.874;2023-11-21T10:32:15;7.06;99.75
13796;SHT30;40911;51.552;9.874;2023-11-21T10:34:36;7.09;99.64
13796;SHT30;40911;51.552;9.874;2023-11-21T10:36:58;7.04;99.53
13796;SHT30;40911;51.552;9.874;2023-11-21T10:39:20;7.07;99.57
13796;SHT30;40911;51.552;9.874;2023-11-21T10:41:45;7.11;99.61
13796;SHT30;40911;51.552;9.874;2023-11-21T10:44:08;7.13;99.61
13796;SHT30;40911;51.552;9.874;2023-11-21T10:46:32;7.16;99.54
13796;SHT30;40911;51.552;9.874;2023-11-21T10:48:54;7.18;99.52
13796;SHT30;40911;51.552;9.874;2023-11-21T10:51:16;7.20;99.44
13796;SHT30;40911;51.552;9.874;2023-11-21T10:53:39;7.21;99.48
13796;SHT30;40911;51.552;9.874;2023-11-21T10:56:05;7.23;99.48
13796;SHT30;40911;51.552;9.874;2023-11-21T10:58:29;7.16;99.38
13796;SHT30;40911;51.552;9.874;2023-11-21T11:00:52;7.26;99.55
13796;SHT30;40911;51.552;9.874;2023-11-21T11:03:15;7.27;99.50
13796;SHT30;40911;51.552;9.874;2023-11-21T11:05:38;7.28;99.59
13796;SHT30;40911;51.552;9.874;2023-11-21T11:08:03;7.32;99.60
13796;SHT30;40911;51.552;9.874;2023-11-21T11:10:26;7.30;99.60
13796;SHT30;40911;51.552;9.874;2023-11-21T11:12:49;7.32;99.73
13796;SHT30;40911;51.552;9.874;2023-11-21T11:15:15;7.24;99.94
13796;SHT30;40911;51.552;9.874;2023-11-21T11:17:38;7.26;99.85
13796;SHT30;40911;51.552;9.874;2023-11-21T11:20:01;7.27;99.86
13796;SHT30;40911;51.552;9.874;2023-11-21T11:22:31;7.28;99.88
13796;SHT30;40911;51.552;9.874;2023-11-21T11:25:12;7.24;99.92
13796;SHT30;40911;51.552;9.874;2023-11-21T11:27:40;7.18;99.92
13796;SHT30;40911;51.552;9.874;2023-11-21T11:30:17;7.16;99.93
13796;SHT30;40911;51.552;9.874;2023-11-21T11:33:03;7.17;99.95
13796;SHT30;40911;51.552;9.874;2023-11-21T11:35:34;7.07;99.84
13796;SHT30;40911;51.552;9.874;2023-11-21T11:37:59;7.10;99.84
13796;SHT30;40911;51.552;9.874;2023-11-21T11:40:20;7.06;99.77
13796;SHT30;40911;51.552;9.874;2023-11-21T11:42:56;7.09;99.80
13796;SHT30;40911;51.552;9.874;2023-11-21T11:45:18;7.04;99.71
13796;SHT30;40911;51.552;9.874;2023-11-21T11:47:41;7.01;99.59
13796;SHT30;40911;51.552;9.874;2023-11-21T11:50:07;7.01;99.59
13796;SHT30;40911;51.552;9.874;2023-11-21T11:52:34;7.06;99.43
13796;SHT30;40911;51.552;9.874;2023-11-21T11:54:56;7.00;99.40
13796;SHT30;40911;51.552;9.874;2023-11-21T11:57:18;6.96;99.31
13796;SHT30;40911;51.552;9.874;2023-11-21T12:00:14;7.00;99.20
13796;SHT30;40911;51.552;9.874;2023-11-21T12:02:40;6.93;99.07
13796;SHT30;40911;51.552;9.874;2023-11-21T12:05:09;6.86;99.03
13796;SHT30;40911;51.552;9.874;2023-11-21T12:07:41;6.72;98.60
13796;SHT30;40911;51.552;9.874;2023-11-21T12:10:04;6.68;98.38
13796;SHT30;40911;51.552;9.874;2023-11-21T12:12:26;6.56;98.16
13796;SHT30;40911;51.552;9.874;2023-11-21T12:14:48;6.64;98.12
13796;SHT30;40911;51.552;9.874;2023-11-21T12:17:09;6.61;97.98
13796;SHT30;40911;51.552;9.874;2023-11-21T12:19:31;6.71;97.78
13796;SHT30;40911;51.552;9.874;2023-11-21T12:21:54;6.73;97.64
13796;SHT30;40911;51.552;9.874;2023-11-21T12:24:16;6.67;97.22
13796;SHT30;40911;51.552;9.874;2023-11-21T12:26:38;6.64;96.85
13796;SHT30;40911;51.552;9.874;2023-11-21T12:29:00;6.68;97.05
13796;SHT30;40911;51.552;9.874;2023-11-21T12:31:23;6.62;96.90
13796;SHT30;40911;51.552;9.874;2023-11-21T12:33:50;6.55;96.85
13796;SHT30;40911;51.552;9.874;2023-11-21T12:36:18;6.55;96.76
13796;SHT30;40911;51.552;9.874;2023-11-21T12:38:41;6.53;96.95
13796;SHT30;40911;51.552;9.874;2023-11-21T12:41:03;6.59;97.15
13796;SHT30;40911;51.552;9.874;2023-11-21T12:43:27;6.56;96.73
13796;SHT30;40911;51.552;9.874;2023-11-21T12:45:49;6.56;96.30
13796;SHT30;40911;51.552;9.874;2023-11-21T12:48:10;6.53;96.30
13796;SHT30;40911;51.552;9.874;2023-11-21T12:50:33;6.61;96.27
13796;SHT30;40911;51.552;9.874;2023-11-21T12:52:59;6.59;95.78
13796;SHT30;40911;51.552;9.874;2023-11-21T12:55:23;6.61;95.82
13796;SHT30;40911;51.552;9.874;2023-11-21T12:57:45;6.56;95.59
13796;SHT30;40911;51.552;9.874;2023-11-21T13:00:08;6.58;95.53
13796;SHT30;40911;51.552;9.874;2023-11-21T13:02:36;6.59;95.09
13796;SHT30;40911;51.552;9.874;2023-11-21T13:04:58;6.64;95.24
13796;SHT30;40911;51.552;9.874;2023-11-21T13:07:30;6.56;95.03
13796;SHT30;40911;51.552;9.874;2023-11-21T13:09:57;6.49;95.13
13796;SHT30;40911;51.552;9.874;2023-11-21T13:12:24;6.48;95.18
13796;SHT30;40911;51.552;9.874;2023-11-21T13:14:48;6.48;95.38
13796;SHT30;40911;51.552;9.874;2023-11-21T13:17:12;6.38;95.20
13796;SHT30;40911;51.552;9.874;2023-11-21T13:19:36;6.42;95.29
13796;SHT30;40911;51.552;9.874;2023-11-21T13:22:04;6.37;95.46
13796;SHT30;40911;51.552;9.874;2023-11-21T13:24:31;6.40;95.15
13796;SHT30;40911;51.552;9.874;2023-11-21T13:26:53;6.38;95.26
13796;SHT30;40911;51.552;9.874;2023-11-21T13:29:16;6.34;95.03
13796;SHT30;40911;51.552;9.874;2023-11-21T13:31:38;6.37;95.02
13796;SHT30;40911;51.552;9.874;2023-11-21T13:33:59;6.37;95.07
13796;SHT30;40911;51.552;9.874;2023-11-21T13:36:25;6.34;95.04
13796;SHT30;40911;51.552;9.874;2023-11-21T13:38:51;6.38;95.01
13796;SHT30;40911;51.552;9.874;2023-11-21T13:41:32;6.38;94.97
13796;SHT30;40911;51.552;9.874;2023-11-21T13:44:03;6.24;94.75
13796;SHT30;40911;51.552;9.874;2023-11-21T13:46:42;6.28;94.71
13796;SHT30;40911;51.552;9.874;2023-11-21T13:49:06;6.21;94.62
13796;SHT30;40911;51.552;9.874;2023-11-21T13:51:35;6.24;94.73
13796;SHT30;40911;51.552;9.874;2023-11-21T13:54:12;6.20;94.58
13796;SHT30;40911;51.552;9.874;2023-11-21T13:56:44;6.23;94.56
13796;SHT30;40911;51.552;9.874;2023-11-21T13:59:16;6.20;94.68
13796;SHT30;40911;51.552;9.874;2023-11-21T14:02:09;6.23;94.78
13796;SHT30;40911;51.552;9.874;2023-11-21T14:05:04;6.20;94.57
13796;SHT30;40911;51.552;9.874;2023-11-21T14:07:31;6.17;94.74
13796;SHT30;40911;51.552;9.874;2023-11-21T14:09:55;6.21;94.62
13796;SHT30;40911;51.552;9.874;2023-11-21T14:12:35;6.21;94.53
13796;SHT30;40911;51.552;9.874;2023-11-21T14:15:15;6.23;94.27
13796;SHT30;40911;51.552;9.874;2023-11-21T14:17:40;6.20;94.09
13796;SHT30;40911;51.552;9.874;2023-11-21T14:20:02;6.13;94.17
13796;SHT30;40911;51.552;9.874;2023-11-21T14:22:25;6.16;93.79
13796;SHT30;40911;51.552;9.874;2023-11-21T14:24:47;6.11;93.80
13796;SHT30;40911;51.552;9.874;2023-11-21T14:27:10;6.11;93.97
13796;SHT30;40911;51.552;9.874;2023-11-21T14:29:33;6.10;93.92
13796;SHT30;40911;51.552;9.874;2023-11-21T14:31:59;6.04;93.83
13796;SHT30;40911;51.552;9.874;2023-11-21T14:34:23;6.03;93.82
13796;SHT30;40911;51.552;9.874;2023-11-21T14:36:46;6.09;94.06
13796;SHT30;40911;51.552;9.874;2023-11-21T14:39:09;6.02;94.02
13796;SHT30;40911;51.552;9.874;2023-11-21T14:41:41;6.03;93.77
13796;SHT30;40911;51.552;9.874;2023-11-21T14:44:05;5.97;93.66
13796;SHT30;40911;51.552;9.874;2023-11-21T14:46:32;5.97;93.64
13796;SHT30;40911;51.552;9.874;2023-11-21T14:48:55;5.97;93.39
13796;SHT30;40911;51.552;9.874;2023-11-21T14:51:30;5.97;93.54
13796;SHT30;40911;51.552;9.874;2023-11-21T14:53:51;5.92;93.71
13796;SHT30;40911;51.552;9.874;2023-11-21T14:56:14;5.94;93.75
13796;SHT30;40911;51.552;9.874;2023-11-21T14:58:43;5.90;93.69
13796;SHT30;40911;51.552;9.874;2023-11-21T15:01:05;5.92;93.58
13796;SHT30;40911;51.552;9.874;2023-11-21T15:03:27;5.87;93.07
13796;SHT30;40911;51.552;9.874;2023-11-21T15:06:11;5.89;92.94
13796;SHT30;40911;51.552;9.874;2023-11-21T15:08:52;5.87;93.08
13796;SHT30;40911;51.552;9.874;2023-11-21T15:11:19;5.83;92.91
13796;SHT30;40911;51.552;9.874;2023-11-21T15:13:46;5.86;92.95
13796;SHT30;40911;51.552;9.874;2023-11-21T15:16:09;5.83;92.57
13796;SHT30;40911;51.552;9.874;2023-11-21T15:18:33;5.82;92.30
13796;SHT30;40911;51.552;9.874;2023-11-21T15:20:55;5.79;92.47